Fort Chipewyan Airport
CYPY : now visible

Airfield :











YOU CAN JOIN US ON...

 
LOGIN :

Register | Disclaimer

   EN    FR    IT 

 









Legend :    VFR   Marginal VFR   IFR   Intensive IFR   Very Intensive IFR
Visi :
Ceiling :
>= 8 km
>= 3000ft
5 to 8 km
1000 to 3000 ft
1500m to 5 km
500 to 1000 ft
800 to 1500m
200 to 500 ft
< 800m
< 200 ft
Symbols :   Thunderstorms  Fog  Heavy snow  Heavy precipitations  Wind > 20 kt






- Airport Elevation : 761 ft
- IATA code : YPY


CYPY - Fort Chipewyan

CURRENT METAR :
  • 220203Z AUTO 35015G20KT 2 1/2SM -SN SCT017 BKN024 OVC031 M03/M05 A2999 RMK VIS VRB 2-3 SLP173

EXPIRED METARs :
  • 220151Z AUTO 36012G19KT 310V040 1 3/4SM -SN FEW012 SCT017 OVC026 M02/M05 A2998 RMK SLP172
  • 220143Z AUTO 35010G15KT 2 1/2SM -SN BKN014 OVC028 M02/M05 A2998 RMK VIS VRB 1-3 SLP172
  • 220126Z AUTO 34011G19KT 310V010 6SM -SN BKN016 OVC025 M02/M05 A2998 RMK SLP169
  • 220110Z AUTO 34014G19KT 310V020 3SM -SN SCT013 BKN018 BKN022 OVC029 M02/M04 A2996 RMK SLP163
  • 220059Z AUTO 34010G18KT 2 1/4SM -SN FEW012 SCT017 BKN024 OVC031 M02/M04 A2996 RMK SLP163
  • 220056Z AUTO 35012G19KT 2 1/2SM -SN SCT014 BKN022 BKN030 OVC036 M02/M04 A2996 RMK SLP162
  • 220047Z AUTO 35011G21KT 3SM -SN SCT014 SCT019 BKN025 OVC030 M02/M04 A2995 RMK SLP161
  • 220028Z AUTO 36011G19KT 1 1/4SM -SN SCT014 OVC023 M01/M04 A2995 RMK SLP158
  • 220008Z AUTO 35011G19KT 3SM -SN SCT017 OVC025 M01/M04 A2994 RMK SLP155
  • 212356Z AUTO 36013G22KT 2 1/4SM -SN OVC023 M01/M04 A2993 RMK SLP153
  • 212300Z AUTO 35014G26KT 9SM OVC023 00/M06 A2990 RMK SLP141

TAF TAF CYPY
Valid from the 22 at 00:00 until the 22 at 06:00 UTC


212338Z 2200/2206 35015G25KT P6SM BKN025
TEMPO 2200/2206 2SM -SHSN OVC020 RMK FCST BASED ON AUTO OBS. NXT FCST WILL BE ISSUED AT 221145Z
CZEG FIR / North America



MET'MAP, your aeronautical weather chart ! - Copyright ORBIFLY December 2007 - Disclaimer

ORBIFLY MET'MAP TEAM :

Programming & Development : Alexandra Zaïnal
Concept & original design : Baudouin d'Aumeries
Assistance for programming : Marc-Olivier Méhu
Technical & hardware support : Manuel Goepfert

Contact : metmap@orbifly.com




SOURCES & CREDITS :

   NOAA       Earth
Advisory